sensor_id;sensor_type;location;lat;lon;timestamp;P1;durP1;ratioP1;P2;durP2;ratioP2
5995;SDS011;3026;53.612;7.278;2023-05-07T00:00:18;18.60;;;12.43;;
5995;SDS011;3026;53.612;7.278;2023-05-07T00:02:45;16.90;;;11.60;;
5995;SDS011;3026;53.612;7.278;2023-05-07T00:05:12;18.07;;;12.67;;
5995;SDS011;3026;53.612;7.278;2023-05-07T00:07:41;19.93;;;12.87;;
5995;SDS011;3026;53.612;7.278;2023-05-07T00:10:10;17.57;;;12.83;;
5995;SDS011;3026;53.612;7.278;2023-05-07T00:12:38;15.67;;;11.67;;
5995;SDS011;3026;53.612;7.278;2023-05-07T00:15:07;17.87;;;12.17;;
5995;SDS011;3026;53.612;7.278;2023-05-07T00:17:34;19.30;;;12.77;;
5995;SDS011;3026;53.612;7.278;2023-05-07T00:20:01;18.53;;;13.43;;
5995;SDS011;3026;53.612;7.278;2023-05-07T00:22:28;20.50;;;13.27;;
5995;SDS011;3026;53.612;7.278;2023-05-07T00:24:58;17.37;;;11.47;;
5995;SDS011;3026;53.612;7.278;2023-05-07T00:27:25;18.73;;;13.53;;
5995;SDS011;3026;53.612;7.278;2023-05-07T00:29:52;20.63;;;13.07;;
5995;SDS011;3026;53.612;7.278;2023-05-07T00:32:19;22.60;;;14.10;;
5995;SDS011;3026;53.612;7.278;2023-05-07T00:34:45;21.50;;;13.20;;
5995;SDS011;3026;53.612;7.278;2023-05-07T00:37:12;19.90;;;13.43;;
5995;SDS011;3026;53.612;7.278;2023-05-07T00:39:39;20.53;;;14.37;;
5995;SDS011;3026;53.612;7.278;2023-05-07T00:42:07;18.20;;;13.10;;
5995;SDS011;3026;53.612;7.278;2023-05-07T00:44:34;16.90;;;12.80;;
5995;SDS011;3026;53.612;7.278;2023-05-07T00:47:01;21.30;;;14.40;;
5995;SDS011;3026;53.612;7.278;2023-05-07T00:49:33;22.27;;;13.60;;
5995;SDS011;3026;53.612;7.278;2023-05-07T00:52:04;22.57;;;13.67;;
5995;SDS011;3026;53.612;7.278;2023-05-07T00:54:32;21.30;;;14.60;;
5995;SDS011;3026;53.612;7.278;2023-05-07T00:56:59;20.60;;;14.13;;
5995;SDS011;3026;53.612;7.278;2023-05-07T00:59:29;21.73;;;14.27;;
5995;SDS011;3026;53.612;7.278;2023-05-07T01:01:57;20.70;;;14.20;;
5995;SDS011;3026;53.612;7.278;2023-05-07T01:04:25;21.90;;;14.63;;
5995;SDS011;3026;53.612;7.278;2023-05-07T01:06:52;20.80;;;13.73;;
5995;SDS011;3026;53.612;7.278;2023-05-07T01:09:21;25.60;;;15.27;;
5995;SDS011;3026;53.612;7.278;2023-05-07T01:11:49;18.23;;;14.47;;
5995;SDS011;3026;53.612;7.278;2023-05-07T01:14:17;22.40;;;14.77;;
5995;SDS011;3026;53.612;7.278;2023-05-07T01:16:47;25.37;;;15.77;;
5995;SDS011;3026;53.612;7.278;2023-05-07T01:19:13;24.07;;;15.80;;
5995;SDS011;3026;53.612;7.278;2023-05-07T01:21:43;23.17;;;15.70;;
5995;SDS011;3026;53.612;7.278;2023-05-07T01:24:14;23.57;;;15.73;;
5995;SDS011;3026;53.612;7.278;2023-05-07T01:26:42;24.73;;;17.03;;
5995;SDS011;3026;53.612;7.278;2023-05-07T01:29:09;25.93;;;17.43;;
5995;SDS011;3026;53.612;7.278;2023-05-07T01:31:36;28.97;;;17.33;;
5995;SDS011;3026;53.612;7.278;2023-05-07T01:34:04;23.57;;;16.37;;
5995;SDS011;3026;53.612;7.278;2023-05-07T01:36:34;21.97;;;16.10;;
5995;SDS011;3026;53.612;7.278;2023-05-07T01:39:05;21.17;;;15.43;;
5995;SDS011;3026;53.612;7.278;2023-05-07T01:41:34;21.97;;;16.60;;
5995;SDS011;3026;53.612;7.278;2023-05-07T01:44:01;25.13;;;16.80;;
5995;SDS011;3026;53.612;7.278;2023-05-07T01:46:29;22.70;;;15.60;;
5995;SDS011;3026;53.612;7.278;2023-05-07T01:48:57;25.43;;;16.50;;
5995;SDS011;3026;53.612;7.278;2023-05-07T01:51:25;23.53;;;16.03;;
5995;SDS011;3026;53.612;7.278;2023-05-07T01:53:52;24.50;;;16.73;;
5995;SDS011;3026;53.612;7.278;2023-05-07T01:56:19;22.27;;;15.93;;
5995;SDS011;3026;53.612;7.278;2023-05-07T01:58:48;24.33;;;17.23;;
5995;SDS011;3026;53.612;7.278;2023-05-07T02:01:16;24.27;;;16.83;;
5995;SDS011;3026;53.612;7.278;2023-05-07T02:03:43;23.27;;;16.20;;
5995;SDS011;3026;53.612;7.278;2023-05-07T02:06:09;20.50;;;14.40;;
5995;SDS011;3026;53.612;7.278;2023-05-07T02:08:36;24.07;;;15.30;;
5995;SDS011;3026;53.612;7.278;2023-05-07T02:11:03;23.07;;;16.63;;
5995;SDS011;3026;53.612;7.278;2023-05-07T02:13:31;23.27;;;16.63;;
5995;SDS011;3026;53.612;7.278;2023-05-07T02:16:00;20.47;;;15.10;;
5995;SDS011;3026;53.612;7.278;2023-05-07T02:18:27;23.17;;;16.40;;
5995;SDS011;3026;53.612;7.278;2023-05-07T02:20:54;26.90;;;16.73;;
5995;SDS011;3026;53.612;7.278;2023-05-07T02:23:21;25.53;;;16.33;;
5995;SDS011;3026;53.612;7.278;2023-05-07T02:25:47;24.47;;;16.30;;
5995;SDS011;3026;53.612;7.278;2023-05-07T02:28:14;26.37;;;16.13;;
5995;SDS011;3026;53.612;7.278;2023-05-07T02:30:41;25.90;;;17.63;;
5995;SDS011;3026;53.612;7.278;2023-05-07T02:33:09;27.63;;;17.37;;
5995;SDS011;3026;53.612;7.278;2023-05-07T02:35:37;26.37;;;17.93;;
5995;SDS011;3026;53.612;7.278;2023-05-07T02:38:04;27.00;;;17.33;;
5995;SDS011;3026;53.612;7.278;2023-05-07T02:40:31;23.60;;;16.73;;
5995;SDS011;3026;53.612;7.278;2023-05-07T02:42:58;25.40;;;16.97;;
5995;SDS011;3026;53.612;7.278;2023-05-07T02:45:25;26.30;;;16.83;;
5995;SDS011;3026;53.612;7.278;2023-05-07T02:47:52;25.13;;;16.87;;
5995;SDS011;3026;53.612;7.278;2023-05-07T02:50:20;28.73;;;17.60;;
5995;SDS011;3026;53.612;7.278;2023-05-07T02:52:47;23.07;;;16.20;;
5995;SDS011;3026;53.612;7.278;2023-05-07T02:55:14;23.00;;;16.17;;
5995;SDS011;3026;53.612;7.278;2023-05-07T02:57:41;23.50;;;17.40;;
5995;SDS011;3026;53.612;7.278;2023-05-07T03:00:11;23.60;;;17.43;;
5995;SDS011;3026;53.612;7.278;2023-05-07T03:02:39;25.40;;;16.90;;
5995;SDS011;3026;53.612;7.278;2023-05-07T03:05:06;20.40;;;16.07;;
5995;SDS011;3026;53.612;7.278;2023-05-07T03:07:35;23.27;;;16.70;;
5995;SDS011;3026;53.612;7.278;2023-05-07T03:10:02;22.43;;;16.07;;
5995;SDS011;3026;53.612;7.278;2023-05-07T03:12:29;26.10;;;18.10;;
5995;SDS011;3026;53.612;7.278;2023-05-07T03:14:56;29.10;;;18.40;;
5995;SDS011;3026;53.612;7.278;2023-05-07T03:17:23;27.60;;;18.87;;
5995;SDS011;3026;53.612;7.278;2023-05-07T03:19:49;25.80;;;18.37;;
5995;SDS011;3026;53.612;7.278;2023-05-07T03:22:16;26.23;;;18.47;;
5995;SDS011;3026;53.612;7.278;2023-05-07T03:24:44;31.90;;;21.07;;
5995;SDS011;3026;53.612;7.278;2023-05-07T03:27:11;30.67;;;20.53;;
5995;SDS011;3026;53.612;7.278;2023-05-07T03:29:38;29.13;;;19.00;;
5995;SDS011;3026;53.612;7.278;2023-05-07T03:32:05;26.90;;;18.43;;
5995;SDS011;3026;53.612;7.278;2023-05-07T03:34:31;27.63;;;18.90;;
5995;SDS011;3026;53.612;7.278;2023-05-07T03:36:58;27.60;;;17.87;;
5995;SDS011;3026;53.612;7.278;2023-05-07T03:39:25;29.50;;;19.17;;
5995;SDS011;3026;53.612;7.278;2023-05-07T03:41:53;27.87;;;18.60;;
5995;SDS011;3026;53.612;7.278;2023-05-07T03:44:20;26.57;;;18.97;;
5995;SDS011;3026;53.612;7.278;2023-05-07T03:46:47;28.67;;;19.87;;
5995;SDS011;3026;53.612;7.278;2023-05-07T03:49:14;22.73;;;16.23;;
5995;SDS011;3026;53.612;7.278;2023-05-07T03:51:41;26.00;;;16.63;;
5995;SDS011;3026;53.612;7.278;2023-05-07T03:54:07;26.27;;;18.47;;
5995;SDS011;3026;53.612;7.278;2023-05-07T03:56:34;29.73;;;17.47;;
5995;SDS011;3026;53.612;7.278;2023-05-07T03:59:02;23.30;;;17.00;;
5995;SDS011;3026;53.612;7.278;2023-05-07T04:01:29;24.63;;;16.97;;
5995;SDS011;3026;53.612;7.278;2023-05-07T04:03:56;25.13;;;18.13;;
5995;SDS011;3026;53.612;7.278;2023-05-07T04:06:23;22.17;;;16.63;;
5995;SDS011;3026;53.612;7.278;2023-05-07T04:08:50;23.13;;;16.80;;
5995;SDS011;3026;53.612;7.278;2023-05-07T04:11:17;22.57;;;16.17;;
5995;SDS011;3026;53.612;7.278;2023-05-07T04:13:43;20.93;;;15.80;;
5995;SDS011;3026;53.612;7.278;2023-05-07T04:16:12;22.47;;;16.53;;
5995;SDS011;3026;53.612;7.278;2023-05-07T04:18:38;22.53;;;17.00;;
5995;SDS011;3026;53.612;7.278;2023-05-07T04:21:05;23.03;;;15.80;;
5995;SDS011;3026;53.612;7.278;2023-05-07T04:23:39;22.43;;;15.87;;
5995;SDS011;3026;53.612;7.278;2023-05-07T04:26:06;23.73;;;17.20;;
5995;SDS011;3026;53.612;7.278;2023-05-07T04:28:33;25.30;;;17.63;;
5995;SDS011;3026;53.612;7.278;2023-05-07T04:31:00;27.97;;;18.90;;
5995;SDS011;3026;53.612;7.278;2023-05-07T04:33:28;27.33;;;18.60;;
5995;SDS011;3026;53.612;7.278;2023-05-07T04:35:55;24.37;;;16.90;;
5995;SDS011;3026;53.612;7.278;2023-05-07T04:38:22;24.23;;;17.30;;
5995;SDS011;3026;53.612;7.278;2023-05-07T04:40:49;23.60;;;16.90;;
5995;SDS011;3026;53.612;7.278;2023-05-07T04:43:16;22.47;;;16.33;;
5995;SDS011;3026;53.612;7.278;2023-05-07T04:45:43;26.10;;;17.57;;
5995;SDS011;3026;53.612;7.278;2023-05-07T04:48:10;21.40;;;15.87;;
5995;SDS011;3026;53.612;7.278;2023-05-07T04:50:38;25.60;;;17.90;;
5995;SDS011;3026;53.612;7.278;2023-05-07T04:53:05;25.67;;;18.70;;
5995;SDS011;3026;53.612;7.278;2023-05-07T04:55:32;28.53;;;18.40;;
5995;SDS011;3026;53.612;7.278;2023-05-07T04:57:59;29.60;;;19.00;;
5995;SDS011;3026;53.612;7.278;2023-05-07T05:00:27;26.83;;;17.67;;
5995;SDS011;3026;53.612;7.278;2023-05-07T05:02:53;22.53;;;17.00;;
5995;SDS011;3026;53.612;7.278;2023-05-07T05:05:20;28.47;;;17.80;;
5995;SDS011;3026;53.612;7.278;2023-05-07T05:07:48;27.57;;;18.13;;
5995;SDS011;3026;53.612;7.278;2023-05-07T05:10:16;27.87;;;18.47;;
5995;SDS011;3026;53.612;7.278;2023-05-07T05:12:43;27.60;;;17.90;;
5995;SDS011;3026;53.612;7.278;2023-05-07T05:15:11;24.60;;;16.70;;
5995;SDS011;3026;53.612;7.278;2023-05-07T05:17:38;25.53;;;18.20;;
5995;SDS011;3026;53.612;7.278;2023-05-07T05:20:05;28.27;;;18.50;;
5995;SDS011;3026;53.612;7.278;2023-05-07T05:22:32;26.07;;;17.87;;
5995;SDS011;3026;53.612;7.278;2023-05-07T05:25:00;25.20;;;17.73;;
5995;SDS011;3026;53.612;7.278;2023-05-07T05:27:28;24.60;;;16.97;;
5995;SDS011;3026;53.612;7.278;2023-05-07T05:29:55;21.97;;;16.20;;
5995;SDS011;3026;53.612;7.278;2023-05-07T05:32:22;18.97;;;14.93;;
5995;SDS011;3026;53.612;7.278;2023-05-07T05:34:48;20.80;;;14.77;;
5995;SDS011;3026;53.612;7.278;2023-05-07T05:37:16;20.73;;;14.60;;
5995;SDS011;3026;53.612;7.278;2023-05-07T05:39:43;21.90;;;15.10;;
5995;SDS011;3026;53.612;7.278;2023-05-07T05:42:11;19.00;;;14.27;;
5995;SDS011;3026;53.612;7.278;2023-05-07T05:44:37;20.33;;;15.07;;
5995;SDS011;3026;53.612;7.278;2023-05-07T05:47:04;19.27;;;14.43;;
5995;SDS011;3026;53.612;7.278;2023-05-07T05:49:31;20.23;;;14.23;;
5995;SDS011;3026;53.612;7.278;2023-05-07T05:51:58;22.93;;;14.87;;
5995;SDS011;3026;53.612;7.278;2023-05-07T05:54:25;18.37;;;13.97;;
5995;SDS011;3026;53.612;7.278;2023-05-07T05:56:51;17.83;;;14.17;;
5995;SDS011;3026;53.612;7.278;2023-05-07T05:59:19;19.03;;;13.57;;
5995;SDS011;3026;53.612;7.278;2023-05-07T06:01:46;17.80;;;12.50;;
5995;SDS011;3026;53.612;7.278;2023-05-07T06:04:13;16.87;;;13.23;;
5995;SDS011;3026;53.612;7.278;2023-05-07T06:06:40;16.90;;;12.47;;
5995;SDS011;3026;53.612;7.278;2023-05-07T06:09:07;16.57;;;12.80;;
5995;SDS011;3026;53.612;7.278;2023-05-07T06:11:33;16.80;;;12.10;;
5995;SDS011;3026;53.612;7.278;2023-05-07T06:14:00;17.37;;;12.63;;
5995;SDS011;3026;53.612;7.278;2023-05-07T06:16:28;18.40;;;13.40;;
5995;SDS011;3026;53.612;7.278;2023-05-07T06:18:55;17.17;;;12.43;;
5995;SDS011;3026;53.612;7.278;2023-05-07T06:21:22;19.07;;;12.97;;
5995;SDS011;3026;53.612;7.278;2023-05-07T06:23:49;17.13;;;13.33;;
5995;SDS011;3026;53.612;7.278;2023-05-07T06:26:17;20.17;;;14.23;;
5995;SDS011;3026;53.612;7.278;2023-05-07T06:28:44;18.47;;;12.10;;
5995;SDS011;3026;53.612;7.278;2023-05-07T06:31:11;14.47;;;10.80;;
5995;SDS011;3026;53.612;7.278;2023-05-07T06:33:40;18.30;;;11.90;;
5995;SDS011;3026;53.612;7.278;2023-05-07T06:36:07;15.93;;;12.07;;
5995;SDS011;3026;53.612;7.278;2023-05-07T06:38:34;17.40;;;11.87;;
5995;SDS011;3026;53.612;7.278;2023-05-07T06:41:01;16.43;;;12.13;;
5995;SDS011;3026;53.612;7.278;2023-05-07T06:43:28;15.90;;;12.37;;
5995;SDS011;3026;53.612;7.278;2023-05-07T06:45:54;15.00;;;11.67;;
5995;SDS011;3026;53.612;7.278;2023-05-07T06:48:21;16.40;;;11.37;;
5995;SDS011;3026;53.612;7.278;2023-05-07T06:50:49;18.03;;;12.70;;
5995;SDS011;3026;53.612;7.278;2023-05-07T06:53:16;17.23;;;11.97;;
5995;SDS011;3026;53.612;7.278;2023-05-07T06:55:43;17.47;;;12.27;;
5995;SDS011;3026;53.612;7.278;2023-05-07T06:58:09;12.77;;;10.33;;
5995;SDS011;3026;53.612;7.278;2023-05-07T07:00:36;16.67;;;11.07;;
5995;SDS011;3026;53.612;7.278;2023-05-07T07:03:03;15.50;;;10.63;;
5995;SDS011;3026;53.612;7.278;2023-05-07T07:05:30;16.10;;;11.53;;
5995;SDS011;3026;53.612;7.278;2023-05-07T07:07:58;15.00;;;11.63;;
5995;SDS011;3026;53.612;7.278;2023-05-07T07:10:25;14.37;;;11.33;;
5995;SDS011;3026;53.612;7.278;2023-05-07T07:12:51;16.20;;;11.33;;
5995;SDS011;3026;53.612;7.278;2023-05-07T07:15:19;17.97;;;11.70;;
5995;SDS011;3026;53.612;7.278;2023-05-07T07:17:47;15.33;;;10.93;;
5995;SDS011;3026;53.612;7.278;2023-05-07T07:20:14;16.27;;;11.17;;
5995;SDS011;3026;53.612;7.278;2023-05-07T07:22:41;15.97;;;11.13;;
5995;SDS011;3026;53.612;7.278;2023-05-07T07:25:09;16.37;;;11.33;;
5995;SDS011;3026;53.612;7.278;2023-05-07T07:27:37;16.13;;;11.20;;
5995;SDS011;3026;53.612;7.278;2023-05-07T07:30:05;15.17;;;10.87;;
5995;SDS011;3026;53.612;7.278;2023-05-07T07:32:33;13.10;;;10.07;;
5995;SDS011;3026;53.612;7.278;2023-05-07T07:35:00;15.93;;;10.80;;
5995;SDS011;3026;53.612;7.278;2023-05-07T07:37:27;15.53;;;10.73;;
5995;SDS011;3026;53.612;7.278;2023-05-07T07:39:54;17.93;;;11.63;;
5995;SDS011;3026;53.612;7.278;2023-05-07T07:42:23;17.43;;;10.37;;
5995;SDS011;3026;53.612;7.278;2023-05-07T07:44:49;12.67;;;9.77;;
5995;SDS011;3026;53.612;7.278;2023-05-07T07:47:16;13.20;;;9.53;;
5995;SDS011;3026;53.612;7.278;2023-05-07T07:49:43;15.37;;;9.80;;
5995;SDS011;3026;53.612;7.278;2023-05-07T07:52:10;13.33;;;9.93;;
5995;SDS011;3026;53.612;7.278;2023-05-07T07:54:37;14.57;;;10.27;;
5995;SDS011;3026;53.612;7.278;2023-05-07T07:57:03;11.97;;;9.63;;
5995;SDS011;3026;53.612;7.278;2023-05-07T07:59:31;14.37;;;9.93;;
5995;SDS011;3026;53.612;7.278;2023-05-07T08:01:58;12.40;;;9.87;;
5995;SDS011;3026;53.612;7.278;2023-05-07T08:04:25;13.63;;;10.47;;
5995;SDS011;3026;53.612;7.278;2023-05-07T08:06:52;15.43;;;10.37;;
5995;SDS011;3026;53.612;7.278;2023-05-07T08:09:20;11.10;;;9.07;;
5995;SDS011;3026;53.612;7.278;2023-05-07T08:11:46;11.63;;;9.63;;
5995;SDS011;3026;53.612;7.278;2023-05-07T08:14:13;11.67;;;9.63;;
5995;SDS011;3026;53.612;7.278;2023-05-07T08:16:42;12.77;;;9.77;;
5995;SDS011;3026;53.612;7.278;2023-05-07T08:19:08;13.23;;;9.50;;
5995;SDS011;3026;53.612;7.278;2023-05-07T08:21:38;13.23;;;10.10;;
5995;SDS011;3026;53.612;7.278;2023-05-07T08:24:05;12.20;;;9.73;;
5995;SDS011;3026;53.612;7.278;2023-05-07T08:26:32;14.20;;;9.77;;
5995;SDS011;3026;53.612;7.278;2023-05-07T08:29:01;11.73;;;10.00;;
5995;SDS011;3026;53.612;7.278;2023-05-07T08:31:27;12.53;;;9.63;;
5995;SDS011;3026;53.612;7.278;2023-05-07T08:33:55;11.97;;;9.60;;
5995;SDS011;3026;53.612;7.278;2023-05-07T08:36:23;13.70;;;10.67;;
5995;SDS011;3026;53.612;7.278;2023-05-07T08:38:50;11.33;;;9.47;;
5995;SDS011;3026;53.612;7.278;2023-05-07T08:41:17;14.63;;;10.40;;
5995;SDS011;3026;53.612;7.278;2023-05-07T08:43:46;14.03;;;10.97;;
5995;SDS011;3026;53.612;7.278;2023-05-07T08:46:16;12.70;;;9.50;;
5995;SDS011;3026;53.612;7.278;2023-05-07T08:48:44;12.43;;;10.07;;
5995;SDS011;3026;53.612;7.278;2023-05-07T08:51:14;12.87;;;10.47;;
5995;SDS011;3026;53.612;7.278;2023-05-07T08:53:42;14.10;;;10.37;;
5995;SDS011;3026;53.612;7.278;2023-05-07T08:56:09;14.50;;;10.70;;
5995;SDS011;3026;53.612;7.278;2023-05-07T08:58:36;15.90;;;11.60;;
5995;SDS011;3026;53.612;7.278;2023-05-07T09:01:03;12.90;;;10.63;;
5995;SDS011;3026;53.612;7.278;2023-05-07T09:03:34;12.97;;;10.10;;
5995;SDS011;3026;53.612;7.278;2023-05-07T09:06:01;14.50;;;11.10;;
5995;SDS011;3026;53.612;7.278;2023-05-07T09:08:29;14.13;;;10.93;;
5995;SDS011;3026;53.612;7.278;2023-05-07T09:10:56;14.23;;;11.37;;
5995;SDS011;3026;53.612;7.278;2023-05-07T09:13:22;14.20;;;11.37;;
5995;SDS011;3026;53.612;7.278;2023-05-07T09:15:49;15.37;;;11.73;;
5995;SDS011;3026;53.612;7.278;2023-05-07T09:18:16;12.70;;;11.27;;
5995;SDS011;3026;53.612;7.278;2023-05-07T09:20:43;15.20;;;12.10;;
5995;SDS011;3026;53.612;7.278;2023-05-07T09:23:10;14.07;;;11.27;;
5995;SDS011;3026;53.612;7.278;2023-05-07T09:25:38;15.30;;;11.33;;
5995;SDS011;3026;53.612;7.278;2023-05-07T09:28:05;15.53;;;11.43;;
5995;SDS011;3026;53.612;7.278;2023-05-07T09:30:32;11.57;;;10.33;;
5995;SDS011;3026;53.612;7.278;2023-05-07T09:33:01;12.60;;;10.57;;
5995;SDS011;3026;53.612;7.278;2023-05-07T09:35:29;12.07;;;10.40;;
5995;SDS011;3026;53.612;7.278;2023-05-07T09:37:57;12.03;;;10.00;;
5995;SDS011;3026;53.612;7.278;2023-05-07T09:40:25;12.27;;;10.50;;
5995;SDS011;3026;53.612;7.278;2023-05-07T09:42:54;12.43;;;10.37;;
5995;SDS011;3026;53.612;7.278;2023-05-07T09:45:22;11.60;;;9.37;;
5995;SDS011;3026;53.612;7.278;2023-05-07T09:47:53;11.20;;;10.00;;
5995;SDS011;3026;53.612;7.278;2023-05-07T09:50:21;11.93;;;10.07;;
5995;SDS011;3026;53.612;7.278;2023-05-07T09:52:52;10.90;;;9.73;;
5995;SDS011;3026;53.612;7.278;2023-05-07T09:55:20;9.97;;;8.73;;
5995;SDS011;3026;53.612;7.278;2023-05-07T09:57:48;10.00;;;9.00;;
5995;SDS011;3026;53.612;7.278;2023-05-07T10:00:19;11.10;;;9.93;;
5995;SDS011;3026;53.612;7.278;2023-05-07T10:02:47;11.53;;;10.23;;
5995;SDS011;3026;53.612;7.278;2023-05-07T10:05:17;11.17;;;9.97;;
5995;SDS011;3026;53.612;7.278;2023-05-07T10:07:44;12.63;;;10.23;;
5995;SDS011;3026;53.612;7.278;2023-05-07T10:10:12;11.77;;;10.57;;
5995;SDS011;3026;53.612;7.278;2023-05-07T10:12:40;11.50;;;10.20;;
5995;SDS011;3026;53.612;7.278;2023-05-07T10:15:07;10.97;;;9.80;;
5995;SDS011;3026;53.612;7.278;2023-05-07T10:17:37;11.83;;;10.47;;
5995;SDS011;3026;53.612;7.278;2023-05-07T10:20:05;10.93;;;9.77;;
5995;SDS011;3026;53.612;7.278;2023-05-07T10:22:37;9.83;;;8.83;;
5995;SDS011;3026;53.612;7.278;2023-05-07T10:25:05;9.93;;;8.93;;
5995;SDS011;3026;53.612;7.278;2023-05-07T10:27:36;9.83;;;8.83;;
5995;SDS011;3026;53.612;7.278;2023-05-07T10:30:14;11.10;;;9.27;;
5995;SDS011;3026;53.612;7.278;2023-05-07T10:32:49;9.60;;;8.70;;
5995;SDS011;3026;53.612;7.278;2023-05-07T10:35:20;9.17;;;8.27;;
5995;SDS011;3026;53.612;7.278;2023-05-07T10:37:50;9.57;;;8.50;;
5995;SDS011;3026;53.612;7.278;2023-05-07T10:40:17;9.20;;;8.30;;
5995;SDS011;3026;53.612;7.278;2023-05-07T10:42:55;9.70;;;8.70;;
5995;SDS011;3026;53.612;7.278;2023-05-07T10:45:24;9.37;;;8.37;;
5995;SDS011;3026;53.612;7.278;2023-05-07T10:48:12;9.33;;;7.90;;
5995;SDS011;3026;53.612;7.278;2023-05-07T10:50:40;8.80;;;7.93;;
5995;SDS011;3026;53.612;7.278;2023-05-07T10:53:21;9.03;;;8.23;;
5995;SDS011;3026;53.612;7.278;2023-05-07T10:58:54;9.57;;;8.67;;
5995;SDS011;3026;53.612;7.278;2023-05-07T11:04:18;9.83;;;8.83;;
5995;SDS011;3026;53.612;7.278;2023-05-07T11:09:55;9.20;;;8.30;;
5995;SDS011;3026;53.612;7.278;2023-05-07T11:15:15;9.47;;;8.57;;
5995;SDS011;3026;53.612;7.278;2023-05-07T11:18:03;9.27;;;8.30;;
5995;SDS011;3026;53.612;7.278;2023-05-07T11:20:48;11.23;;;9.80;;
5995;SDS011;3026;53.612;7.278;2023-05-07T11:26:16;9.40;;;8.50;;
5995;SDS011;3026;53.612;7.278;2023-05-07T11:28:43;9.23;;;8.33;;
5995;SDS011;3026;53.612;7.278;2023-05-07T11:31:10;10.60;;;9.53;;
5995;SDS011;3026;53.612;7.278;2023-05-07T11:33:37;11.23;;;9.40;;
5995;SDS011;3026;53.612;7.278;2023-05-07T11:36:07;9.40;;;8.43;;
5995;SDS011;3026;53.612;7.278;2023-05-07T11:38:34;9.87;;;8.87;;
5995;SDS011;3026;53.612;7.278;2023-05-07T11:41:02;8.87;;;8.00;;
5995;SDS011;3026;53.612;7.278;2023-05-07T11:43:30;9.27;;;8.27;;
5995;SDS011;3026;53.612;7.278;2023-05-07T11:46:04;7.93;;;7.17;;
5995;SDS011;3026;53.612;7.278;2023-05-07T11:48:32;8.80;;;8.00;;
5995;SDS011;3026;53.612;7.278;2023-05-07T11:51:02;9.77;;;8.77;;
5995;SDS011;3026;53.612;7.278;2023-05-07T11:53:36;9.20;;;8.40;;
5995;SDS011;3026;53.612;7.278;2023-05-07T11:56:08;8.97;;;8.17;;
5995;SDS011;3026;53.612;7.278;2023-05-07T11:58:37;8.50;;;7.70;;
5995;SDS011;3026;53.612;7.278;2023-05-07T12:01:04;9.07;;;8.17;;
5995;SDS011;3026;53.612;7.278;2023-05-07T12:03:34;9.20;;;8.30;;
5995;SDS011;3026;53.612;7.278;2023-05-07T12:06:02;8.40;;;7.50;;
5995;SDS011;3026;53.612;7.278;2023-05-07T12:08:32;10.00;;;8.30;;
5995;SDS011;3026;53.612;7.278;2023-05-07T12:11:00;8.47;;;7.57;;
5995;SDS011;3026;53.612;7.278;2023-05-07T12:13:27;8.03;;;6.90;;
5995;SDS011;3026;53.612;7.278;2023-05-07T12:15:55;7.37;;;6.70;;
5995;SDS011;3026;53.612;7.278;2023-05-07T12:18:22;8.90;;;7.60;;
5995;SDS011;3026;53.612;7.278;2023-05-07T12:20:49;7.97;;;7.17;;
5995;SDS011;3026;53.612;7.278;2023-05-07T12:23:17;8.00;;;7.30;;
5995;SDS011;3026;53.612;7.278;2023-05-07T12:25:44;7.40;;;6.73;;
5995;SDS011;3026;53.612;7.278;2023-05-07T12:28:14;9.03;;;7.33;;
5995;SDS011;3026;53.612;7.278;2023-05-07T12:30:41;8.00;;;7.10;;
5995;SDS011;3026;53.612;7.278;2023-05-07T12:33:09;7.63;;;6.93;;
5995;SDS011;3026;53.612;7.278;2023-05-07T12:35:37;7.40;;;6.40;;
5995;SDS011;3026;53.612;7.278;2023-05-07T12:38:07;7.00;;;6.40;;
5995;SDS011;3026;53.612;7.278;2023-05-07T12:40:36;7.60;;;6.57;;
5995;SDS011;3026;53.612;7.278;2023-05-07T12:43:03;7.03;;;6.33;;
5995;SDS011;3026;53.612;7.278;2023-05-07T12:45:32;8.07;;;7.20;;
5995;SDS011;3026;53.612;7.278;2023-05-07T12:48:04;7.80;;;7.10;;
5995;SDS011;3026;53.612;7.278;2023-05-07T12:50:31;7.77;;;7.10;;
5995;SDS011;3026;53.612;7.278;2023-05-07T12:52:59;7.60;;;6.90;;
5995;SDS011;3026;53.612;7.278;2023-05-07T12:55:25;7.40;;;6.70;;
5995;SDS011;3026;53.612;7.278;2023-05-07T12:57:52;7.20;;;6.53;;
5995;SDS011;3026;53.612;7.278;2023-05-07T13:00:33;6.60;;;6.00;;
5995;SDS011;3026;53.612;7.278;2023-05-07T13:03:00;7.83;;;7.13;;
5995;SDS011;3026;53.612;7.278;2023-05-07T13:05:27;8.70;;;7.30;;
5995;SDS011;3026;53.612;7.278;2023-05-07T13:07:54;8.60;;;7.70;;
5995;SDS011;3026;53.612;7.278;2023-05-07T13:10:21;7.80;;;7.20;;
5995;SDS011;3026;53.612;7.278;2023-05-07T13:12:49;7.83;;;7.23;;
5995;SDS011;3026;53.612;7.278;2023-05-07T13:15:16;8.23;;;7.43;;
5995;SDS011;3026;53.612;7.278;2023-05-07T13:17:45;8.27;;;7.47;;
5995;SDS011;3026;53.612;7.278;2023-05-07T13:20:12;7.53;;;6.93;;
5995;SDS011;3026;53.612;7.278;2023-05-07T13:22:39;9.63;;;8.10;;
5995;SDS011;3026;53.612;7.278;2023-05-07T13:25:06;7.40;;;6.67;;
5995;SDS011;3026;53.612;7.278;2023-05-07T13:27:33;8.33;;;7.40;;
5995;SDS011;3026;53.612;7.278;2023-05-07T13:30:03;8.13;;;7.33;;
5995;SDS011;3026;53.612;7.278;2023-05-07T13:32:31;8.80;;;7.93;;
5995;SDS011;3026;53.612;7.278;2023-05-07T13:35:00;10.27;;;7.97;;
5995;SDS011;3026;53.612;7.278;2023-05-07T13:37:27;8.30;;;7.50;;
5995;SDS011;3026;53.612;7.278;2023-05-07T13:39:53;9.17;;;8.30;;
5995;SDS011;3026;53.612;7.278;2023-05-07T13:42:20;8.47;;;7.67;;
5995;SDS011;3026;53.612;7.278;2023-05-07T13:44:47;9.50;;;8.57;;
5995;SDS011;3026;53.612;7.278;2023-05-07T13:47:14;8.03;;;7.17;;
5995;SDS011;3026;53.612;7.278;2023-05-07T13:49:40;8.17;;;7.37;;
5995;SDS011;3026;53.612;7.278;2023-05-07T13:52:09;9.17;;;8.27;;
5995;SDS011;3026;53.612;7.278;2023-05-07T13:54:36;8.47;;;7.67;;
5995;SDS011;3026;53.612;7.278;2023-05-07T13:57:03;9.50;;;8.60;;
5995;SDS011;3026;53.612;7.278;2023-05-07T13:59:29;9.13;;;8.20;;
5995;SDS011;3026;53.612;7.278;2023-05-07T14:01:56;8.70;;;7.80;;
5995;SDS011;3026;53.612;7.278;2023-05-07T14:04:23;8.57;;;7.67;;
5995;SDS011;3026;53.612;7.278;2023-05-07T14:06:50;8.20;;;7.37;;
5995;SDS011;3026;53.612;7.278;2023-05-07T14:09:18;8.93;;;8.10;;
5995;SDS011;3026;53.612;7.278;2023-05-07T14:11:45;9.40;;;8.50;;
5995;SDS011;3026;53.612;7.278;2023-05-07T14:14:12;8.90;;;7.97;;
5995;SDS011;3026;53.612;7.278;2023-05-07T14:16:39;8.50;;;7.67;;
5995;SDS011;3026;53.612;7.278;2023-05-07T14:19:06;8.80;;;7.90;;
5995;SDS011;3026;53.612;7.278;2023-05-07T14:21:33;8.70;;;7.63;;
5995;SDS011;3026;53.612;7.278;2023-05-07T14:24:00;8.83;;;7.93;;
5995;SDS011;3026;53.612;7.278;2023-05-07T14:26:28;8.63;;;7.67;;
5995;SDS011;3026;53.612;7.278;2023-05-07T14:28:55;9.93;;;7.73;;
5995;SDS011;3026;53.612;7.278;2023-05-07T14:31:23;8.30;;;7.60;;
5995;SDS011;3026;53.612;7.278;2023-05-07T14:33:50;9.03;;;8.03;;
5995;SDS011;3026;53.612;7.278;2023-05-07T14:36:17;9.10;;;8.20;;
5995;SDS011;3026;53.612;7.278;2023-05-07T14:38:46;9.53;;;7.73;;
5995;SDS011;3026;53.612;7.278;2023-05-07T14:41:13;8.30;;;7.50;;
5995;SDS011;3026;53.612;7.278;2023-05-07T14:43:41;9.47;;;7.43;;
5995;SDS011;3026;53.612;7.278;2023-05-07T14:46:09;9.10;;;7.70;;
5995;SDS011;3026;53.612;7.278;2023-05-07T14:48:35;9.37;;;8.47;;
5995;SDS011;3026;53.612;7.278;2023-05-07T14:51:02;8.97;;;8.07;;
5995;SDS011;3026;53.612;7.278;2023-05-07T14:53:29;9.07;;;8.17;;
5995;SDS011;3026;53.612;7.278;2023-05-07T14:55:58;8.30;;;7.50;;
5995;SDS011;3026;53.612;7.278;2023-05-07T14:58:25;9.43;;;7.40;;
5995;SDS011;3026;53.612;7.278;2023-05-07T15:00:53;8.87;;;7.83;;
5995;SDS011;3026;53.612;7.278;2023-05-07T15:03:20;9.40;;;7.80;;
5995;SDS011;3026;53.612;7.278;2023-05-07T15:05:48;11.33;;;7.90;;
5995;SDS011;3026;53.612;7.278;2023-05-07T15:08:16;9.27;;;8.37;;
5995;SDS011;3026;53.612;7.278;2023-05-07T15:10:43;9.17;;;7.87;;
5995;SDS011;3026;53.612;7.278;2023-05-07T15:13:10;7.87;;;6.93;;
5995;SDS011;3026;53.612;7.278;2023-05-07T15:15:38;9.97;;;8.40;;